createdAt,value
2023-04-27T00:00:50.586Z,8.80
2023-04-27T00:03:18.799Z,8.74
2023-04-27T00:05:47.704Z,8.67
2023-04-27T00:08:17.314Z,8.47
2023-04-27T00:10:45.543Z,8.30
2023-04-27T00:13:14.069Z,8.24
2023-04-27T00:15:42.130Z,8.05
2023-04-27T00:18:12.358Z,7.78
2023-04-27T00:20:41.407Z,7.78
2023-04-27T00:23:09.884Z,7.86
2023-04-27T00:25:39.822Z,8.03
2023-04-27T00:28:09.696Z,8.10
2023-04-27T00:30:37.850Z,7.93
2023-04-27T00:33:06.118Z,7.73
2023-04-27T00:35:35.040Z,7.58
2023-04-27T00:38:04.558Z,7.34
2023-04-27T00:40:35.108Z,7.00
2023-04-27T00:43:05.178Z,6.97
2023-04-27T00:45:33.425Z,6.75
2023-04-27T00:48:02.895Z,6.50
2023-04-27T00:50:32.027Z,6.15
2023-04-27T00:53:01.951Z,6.14
2023-04-27T00:55:30.427Z,6.39
2023-04-27T00:57:58.972Z,6.24
2023-04-27T01:00:28.853Z,6.02
2023-04-27T01:02:58.017Z,5.94
2023-04-27T01:05:26.639Z,5.93
2023-04-27T01:07:54.740Z,6.04
2023-04-27T01:10:22.929Z,6.08
2023-04-27T01:12:51.218Z,6.17
2023-04-27T01:15:19.392Z,6.18
2023-04-27T01:17:49.964Z,6.17
2023-04-27T01:20:19.952Z,6.21
2023-04-27T01:22:48.012Z,6.31
2023-04-27T01:25:18.198Z,6.37
2023-04-27T01:27:46.326Z,6.41
2023-04-27T01:30:14.313Z,6.39
2023-04-27T01:32:42.304Z,6.38
2023-04-27T01:35:11.071Z,6.49
2023-04-27T01:37:39.264Z,6.48
2023-04-27T01:40:07.666Z,6.44
2023-04-27T01:42:37.022Z,6.31
2023-04-27T01:45:05.511Z,6.32
2023-04-27T01:47:33.605Z,6.26
2023-04-27T01:50:01.699Z,6.25
2023-04-27T01:55:15.538Z,6.31
2023-04-27T01:57:45.306Z,6.38
2023-04-27T02:00:14.347Z,6.42
2023-04-27T02:02:53.798Z,6.49
2023-04-27T02:05:24.455Z,6.51
2023-04-27T02:07:54.192Z,6.32
2023-04-27T02:10:23.591Z,6.29
2023-04-27T02:12:58.192Z,6.21
2023-04-27T02:15:27.032Z,6.14
2023-04-27T02:17:55.009Z,6.10
2023-04-27T02:20:23.213Z,6.06
2023-04-27T02:22:51.410Z,5.94
2023-04-27T02:25:20.004Z,5.83
2023-04-27T02:27:48.006Z,5.92
2023-04-27T02:30:18.681Z,5.88
2023-04-27T02:32:47.735Z,5.80
2023-04-27T02:35:15.567Z,5.67
2023-04-27T02:37:43.490Z,5.61
2023-04-27T02:40:11.866Z,5.56
2023-04-27T02:42:40.013Z,5.70
2023-04-27T02:45:08.632Z,5.72
2023-04-27T02:47:39.339Z,5.70
2023-04-27T02:50:07.952Z,5.61
2023-04-27T02:52:36.904Z,5.54
2023-04-27T02:55:04.878Z,5.44
2023-04-27T02:57:32.983Z,5.29
2023-04-27T03:00:02.794Z,5.32
2023-04-27T03:02:32.525Z,5.40
2023-04-27T03:05:02.645Z,5.32
2023-04-27T03:07:31.736Z,5.27
2023-04-27T03:09:59.521Z,5.30
2023-04-27T03:12:31.331Z,5.27
2023-04-27T03:15:01.253Z,5.22
2023-04-27T03:17:29.694Z,5.27
2023-04-27T03:19:57.954Z,5.20
2023-04-27T03:22:27.660Z,5.19
2023-04-27T03:24:56.115Z,5.27
2023-04-27T03:27:24.299Z,5.17
2023-04-27T03:29:53.345Z,5.15
2023-04-27T03:32:21.749Z,5.30
2023-04-27T03:34:50.631Z,5.28
2023-04-27T03:37:18.946Z,5.43
2023-04-27T03:39:49.069Z,5.48
2023-04-27T03:42:17.569Z,5.64
2023-04-27T03:44:45.882Z,5.62
2023-04-27T03:47:13.808Z,5.50
2023-04-27T03:49:42.077Z,5.33
2023-04-27T03:52:10.447Z,5.31
2023-04-27T03:54:38.702Z,5.43
2023-04-27T03:57:08.432Z,5.58
2023-04-27T03:59:37.369Z,5.71
2023-04-27T04:02:06.822Z,5.83
2023-04-27T04:04:35.376Z,5.75
2023-04-27T04:07:04.042Z,5.80
2023-04-27T04:09:32.439Z,5.95
2023-04-27T04:12:02.001Z,6.11
2023-04-27T04:14:32.213Z,6.08
2023-04-27T04:17:02.073Z,6.13
2023-04-27T04:19:30.316Z,6.20
2023-04-27T04:21:59.320Z,6.40
2023-04-27T04:24:28.309Z,6.40
2023-04-27T04:26:57.028Z,6.34
2023-04-27T04:29:25.847Z,6.23
2023-04-27T04:31:56.849Z,6.25
2023-04-27T04:34:25.970Z,6.24
2023-04-27T04:36:57.426Z,6.49
2023-04-27T04:39:27.295Z,6.40
2023-04-27T04:41:55.568Z,6.51
2023-04-27T04:44:25.659Z,6.77
2023-04-27T04:46:55.660Z,7.04
2023-04-27T04:49:27.055Z,7.06
2023-04-27T04:51:55.157Z,7.03
2023-04-27T04:54:23.223Z,6.95
2023-04-27T04:56:51.469Z,6.86
2023-04-27T04:59:19.731Z,6.86
2023-04-27T05:01:48.026Z,6.45
2023-04-27T05:04:19.076Z,6.02
2023-04-27T05:06:47.556Z,6.00
2023-04-27T05:09:15.494Z,6.17
2023-04-27T05:11:43.651Z,5.90
2023-04-27T05:14:11.758Z,6.09
2023-04-27T05:16:39.711Z,6.15
2023-04-27T05:19:08.503Z,6.34
2023-04-27T05:21:38.167Z,6.36
2023-04-27T05:24:06.433Z,6.80
2023-04-27T05:26:34.312Z,6.95
2023-04-27T05:29:09.374Z,6.87
2023-04-27T05:31:42.763Z,6.94
2023-04-27T05:34:11.121Z,7.15
2023-04-27T05:36:40.750Z,7.12
2023-04-27T05:39:09.311Z,7.34
2023-04-27T05:41:37.268Z,7.49
2023-04-27T05:44:05.486Z,7.56
2023-04-27T05:46:34.415Z,7.26
2023-04-27T05:49:03.630Z,7.38
2023-04-27T05:51:33.341Z,7.96
2023-04-27T05:54:03.796Z,7.94
2023-04-27T05:56:32.003Z,7.79
2023-04-27T05:59:02.538Z,8.40
2023-04-27T06:01:31.306Z,9.03
2023-04-27T06:04:02.049Z,9.27
2023-04-27T06:06:32.262Z,9.43
2023-04-27T06:09:00.451Z,8.93
2023-04-27T06:11:30.964Z,8.72
2023-04-27T06:13:59.331Z,8.67
2023-04-27T06:16:27.761Z,9.46
2023-04-27T06:18:57.153Z,9.11
2023-04-27T06:21:25.850Z,9.79
2023-04-27T06:23:54.131Z,9.72
2023-04-27T06:26:23.537Z,9.26
2023-04-27T06:28:54.550Z,9.01
2023-04-27T06:31:22.998Z,9.77
2023-04-27T06:33:51.826Z,10.73
2023-04-27T06:36:20.040Z,11.28
2023-04-27T06:38:48.679Z,12.12
2023-04-27T06:41:17.636Z,12.53
2023-04-27T06:43:45.954Z,12.03
2023-04-27T06:46:16.766Z,11.62
2023-04-27T06:48:45.346Z,11.04
2023-04-27T06:51:14.179Z,10.73
2023-04-27T06:53:42.589Z,10.66
2023-04-27T06:56:12.997Z,11.38
2023-04-27T06:58:42.665Z,11.36
2023-04-27T07:01:11.522Z,11.88
2023-04-27T07:03:41.696Z,11.83
2023-04-27T07:06:10.475Z,12.26
2023-04-27T07:08:39.012Z,13.50
2023-04-27T07:11:07.595Z,13.41
2023-04-27T07:13:36.159Z,13.89
2023-04-27T07:16:04.598Z,14.25
2023-04-27T07:18:33.472Z,14.52
2023-04-27T07:21:02.879Z,15.36
2023-04-27T07:23:31.344Z,13.52
2023-04-27T07:25:59.437Z,13.67
2023-04-27T07:28:29.843Z,14.06
2023-04-27T07:30:59.078Z,14.73
2023-04-27T07:33:27.913Z,15.46
2023-04-27T07:35:56.770Z,16.03
2023-04-27T07:38:26.664Z,16.93
2023-04-27T07:40:54.937Z,17.90
2023-04-27T07:43:24.053Z,17.05
2023-04-27T07:45:52.218Z,15.42
2023-04-27T07:48:20.586Z,15.57
2023-04-27T07:50:48.875Z,14.96
2023-04-27T07:53:16.784Z,14.70
2023-04-27T07:55:46.450Z,15.39
2023-04-27T07:58:14.480Z,17.07
2023-04-27T08:00:42.685Z,17.41
2023-04-27T08:03:11.094Z,17.34
2023-04-27T08:05:39.575Z,17.00
2023-04-27T08:08:08.798Z,16.59
2023-04-27T08:10:38.241Z,17.14
2023-04-27T08:13:10.022Z,15.58
2023-04-27T08:15:38.055Z,14.80
2023-04-27T08:18:06.145Z,15.28
2023-04-27T08:20:34.359Z,15.18
2023-04-27T08:23:02.761Z,16.59
2023-04-27T08:25:31.120Z,17.45
2023-04-27T08:27:59.155Z,17.87
2023-04-27T08:30:28.772Z,17.72
2023-04-27T08:32:57.019Z,16.57
2023-04-27T08:35:25.726Z,14.75
2023-04-27T08:37:54.393Z,15.23
2023-04-27T08:40:24.926Z,15.43
2023-04-27T08:42:56.783Z,16.93
2023-04-27T08:45:25.285Z,16.29
2023-04-27T08:47:55.049Z,16.50
2023-04-27T08:50:24.460Z,16.20
2023-04-27T08:52:52.381Z,16.05
2023-04-27T08:55:20.400Z,15.64
2023-04-27T08:57:58.010Z,16.06
2023-04-27T09:00:26.733Z,17.08
2023-04-27T09:02:56.435Z,18.26
2023-04-27T09:05:26.193Z,18.12
2023-04-27T09:08:00.882Z,16.55
2023-04-27T09:10:30.072Z,17.96
2023-04-27T09:12:58.753Z,17.55
2023-04-27T09:15:26.702Z,17.29
2023-04-27T09:17:57.414Z,18.70
2023-04-27T09:20:27.212Z,20.58
2023-04-27T09:22:58.862Z,21.05
2023-04-27T09:25:28.032Z,19.83
2023-04-27T09:27:56.255Z,19.70
2023-04-27T09:30:24.048Z,19.01
2023-04-27T09:32:53.808Z,16.69
2023-04-27T09:35:26.402Z,17.31
2023-04-27T09:37:54.609Z,16.15
2023-04-27T09:40:26.481Z,15.51
2023-04-27T09:42:55.598Z,17.14
2023-04-27T09:45:24.492Z,16.78
2023-04-27T09:47:52.856Z,18.01
2023-04-27T09:50:21.970Z,20.17
2023-04-27T09:52:51.289Z,21.11
2023-04-27T09:55:21.183Z,21.38
2023-04-27T09:57:54.829Z,19.75
2023-04-27T10:00:29.592Z,21.68
2023-04-27T10:03:04.309Z,23.19
2023-04-27T10:05:39.721Z,22.88
2023-04-27T10:08:11.720Z,20.46
2023-04-27T10:10:48.843Z,19.06
2023-04-27T10:13:23.708Z,21.25
2023-04-27T10:15:52.833Z,23.46
2023-04-27T10:18:28.197Z,26.22
2023-04-27T10:20:56.001Z,26.63
2023-04-27T10:23:25.965Z,27.76
2023-04-27T10:25:54.558Z,29.50
2023-04-27T10:28:22.754Z,29.09
2023-04-27T10:30:51.056Z,28.61
2023-04-27T10:33:20.478Z,30.12
2023-04-27T10:35:55.995Z,32.18
2023-04-27T10:38:29.532Z,31.73
2023-04-27T10:40:58.561Z,31.39
2023-04-27T10:43:27.528Z,30.53
2023-04-27T10:45:56.085Z,31.13
2023-04-27T10:48:24.293Z,29.45
2023-04-27T10:50:52.680Z,30.68
2023-04-27T10:53:21.050Z,28.95
2023-04-27T10:55:55.789Z,28.29
2023-04-27T10:58:26.677Z,28.56
2023-04-27T11:01:00.204Z,24.93
2023-04-27T11:03:28.201Z,24.39
2023-04-27T11:06:01.441Z,23.91
2023-04-27T11:08:30.796Z,26.92
2023-04-27T11:10:59.997Z,29.18
2023-04-27T11:13:28.396Z,29.39
2023-04-27T11:15:56.498Z,24.12
2023-04-27T11:18:25.315Z,27.42
2023-04-27T11:20:54.874Z,30.63
2023-04-27T11:23:26.915Z,29.38
2023-04-27T11:25:55.250Z,30.07
2023-04-27T11:28:25.249Z,28.61
2023-04-27T11:30:59.487Z,24.68
2023-04-27T11:33:27.866Z,21.08
2023-04-27T11:35:56.468Z,24.35
2023-04-27T11:38:24.679Z,25.24
2023-04-27T11:41:02.428Z,22.47
2023-04-27T11:43:32.258Z,22.24
2023-04-27T11:46:03.698Z,24.87
2023-04-27T11:48:31.667Z,23.37
2023-04-27T11:51:01.322Z,24.27
2023-04-27T11:53:34.166Z,21.55
2023-04-27T11:56:03.529Z,20.66
2023-04-27T11:58:34.252Z,20.91
2023-04-27T12:01:02.274Z,24.49
2023-04-27T12:03:31.049Z,26.95
2023-04-27T12:06:07.689Z,28.50
2023-04-27T12:08:47.933Z,28.08
2023-04-27T12:11:15.714Z,27.18
2023-04-27T12:13:45.211Z,28.52
2023-04-27T12:16:13.896Z,32.56
2023-04-27T12:18:41.829Z,33.85
2023-04-27T12:21:10.429Z,34.22
2023-04-27T12:23:38.808Z,30.27
2023-04-27T12:26:07.051Z,29.48
2023-04-27T12:28:35.061Z,32.40
2023-04-27T12:31:05.195Z,33.10
2023-04-27T12:33:33.358Z,35.86
2023-04-27T12:36:01.406Z,37.21
2023-04-27T12:38:29.482Z,37.44
2023-04-27T12:40:57.521Z,38.19
2023-04-27T12:43:25.542Z,38.49
2023-04-27T12:45:53.638Z,33.96
2023-04-27T12:48:23.694Z,33.16
2023-04-27T12:50:51.810Z,30.62
2023-04-27T12:53:21.911Z,23.35
2023-04-27T12:55:50.080Z,28.71
2023-04-27T12:58:18.099Z,33.00
2023-04-27T13:00:46.513Z,34.66
2023-04-27T13:03:14.834Z,35.65
2023-04-27T13:05:46.035Z,34.67
2023-04-27T13:08:14.824Z,33.47
2023-04-27T13:10:42.778Z,32.69
2023-04-27T13:13:11.158Z,31.51
2023-04-27T13:15:39.215Z,26.45
2023-04-27T13:18:07.360Z,28.30
2023-04-27T13:20:35.394Z,28.30
2023-04-27T13:23:05.962Z,30.37
2023-04-27T13:25:34.349Z,31.82
2023-04-27T13:28:02.302Z,34.08
2023-04-27T13:30:31.450Z,35.99
2023-04-27T13:33:10.431Z,34.17
2023-04-27T13:35:46.869Z,32.52
2023-04-27T13:38:16.500Z,33.36
2023-04-27T13:40:44.345Z,31.45
2023-04-27T13:43:12.343Z,34.57
2023-04-27T13:45:42.651Z,36.32
2023-04-27T13:48:10.557Z,29.42
2023-04-27T13:50:38.917Z,32.45
2023-04-27T13:53:07.104Z,31.82
2023-04-27T13:55:37.227Z,28.06
2023-04-27T13:58:05.872Z,29.58
2023-04-27T14:00:34.804Z,32.18
2023-04-27T14:03:04.736Z,30.32
2023-04-27T14:05:33.420Z,30.30
2023-04-27T14:08:01.407Z,26.70
2023-04-27T14:10:29.836Z,25.46
2023-04-27T14:12:59.227Z,27.90
2023-04-27T14:15:27.571Z,32.56
2023-04-27T14:17:55.720Z,34.81
2023-04-27T14:20:24.624Z,37.19
2023-04-27T14:22:52.572Z,36.03
2023-04-27T14:25:20.609Z,33.32
2023-04-27T14:27:48.616Z,31.91
2023-04-27T14:30:18.027Z,33.60
2023-04-27T14:32:46.347Z,35.45
2023-04-27T14:35:14.129Z,33.99
2023-04-27T14:37:42.184Z,28.78
2023-04-27T14:40:11.518Z,29.23
2023-04-27T14:42:39.547Z,25.57
2023-04-27T14:45:08.082Z,24.71
2023-04-27T14:50:06.771Z,33.02
2023-04-27T14:52:34.728Z,37.01
2023-04-27T14:55:02.528Z,36.43
2023-04-27T14:57:31.238Z,29.69
2023-04-27T14:59:59.924Z,33.64
2023-04-27T15:02:28.208Z,36.08
2023-04-27T15:04:57.891Z,25.32
2023-04-27T15:07:25.911Z,21.35
2023-04-27T15:09:54.308Z,21.42
2023-04-27T15:12:22.257Z,26.23
2023-04-27T15:14:52.493Z,30.68
2023-04-27T15:17:20.468Z,24.12
2023-04-27T15:19:48.520Z,27.56
2023-04-27T15:22:17.638Z,27.83
2023-04-27T15:24:45.415Z,28.92
2023-04-27T15:27:13.337Z,30.26
2023-04-27T15:29:41.980Z,30.43
2023-04-27T15:32:10.005Z,30.63
2023-04-27T15:34:38.034Z,29.02
2023-04-27T15:37:05.900Z,29.16
2023-04-27T15:39:35.135Z,29.02
2023-04-27T15:42:04.739Z,29.02
2023-04-27T15:44:32.382Z,27.37
2023-04-27T15:47:00.403Z,26.45
2023-04-27T15:49:28.764Z,28.04
2023-04-27T15:51:56.501Z,30.66
2023-04-27T15:54:24.425Z,29.14
2023-04-27T15:56:53.664Z,28.47
2023-04-27T15:59:21.583Z,27.05
2023-04-27T16:01:49.438Z,27.33
2023-04-27T16:04:17.621Z,28.44
2023-04-27T16:06:46.952Z,29.70
2023-04-27T16:09:14.957Z,31.08
2023-04-27T16:11:43.353Z,31.76
2023-04-27T16:14:12.840Z,32.00
2023-04-27T16:16:40.796Z,31.72
2023-04-27T16:19:09.004Z,31.66
2023-04-27T16:21:36.909Z,31.39
2023-04-27T16:24:05.235Z,31.59
2023-04-27T16:26:33.173Z,28.03
2023-04-27T16:29:01.023Z,26.23
2023-04-27T16:31:30.374Z,27.26
2023-04-27T16:33:58.332Z,29.08
2023-04-27T16:36:26.275Z,27.62
2023-04-27T16:38:56.160Z,28.20
2023-04-27T16:41:24.350Z,29.90
2023-04-27T16:43:52.352Z,31.76
2023-04-27T16:46:20.515Z,32.00
2023-04-27T16:48:50.110Z,31.65
2023-04-27T16:51:18.277Z,31.53
2023-04-27T16:53:46.418Z,31.78
2023-04-27T16:56:14.787Z,30.12
2023-04-27T16:58:43.014Z,29.56
2023-04-27T17:01:11.262Z,30.28
2023-04-27T17:03:39.404Z,29.30
2023-04-27T17:06:09.142Z,28.77
2023-04-27T17:08:37.404Z,29.16
2023-04-27T17:11:08.924Z,26.67
2023-04-27T17:13:37.045Z,25.31
2023-04-27T17:16:05.754Z,22.75
2023-04-27T17:18:34.544Z,21.85
2023-04-27T17:21:02.878Z,21.17
2023-04-27T17:23:33.847Z,20.82
2023-04-27T17:26:01.997Z,20.69
2023-04-27T17:28:30.713Z,20.95
2023-04-27T17:30:58.803Z,20.94
2023-04-27T17:33:27.455Z,21.03
2023-04-27T17:35:56.060Z,20.42
2023-04-27T17:38:24.372Z,19.54
2023-04-27T17:40:54.335Z,18.72
2023-04-27T17:43:22.920Z,17.83
2023-04-27T17:45:51.258Z,17.72
2023-04-27T17:48:19.645Z,17.63
2023-04-27T17:50:47.891Z,17.15
2023-04-27T17:53:16.070Z,16.96
2023-04-27T17:55:45.412Z,16.69
2023-04-27T17:58:15.591Z,16.74
2023-04-27T18:00:44.336Z,16.62
2023-04-27T18:03:13.082Z,16.77
2023-04-27T18:05:41.355Z,16.68
2023-04-27T18:08:09.699Z,16.51
2023-04-27T18:10:37.595Z,16.50
2023-04-27T18:13:06.211Z,16.55
2023-04-27T18:15:37.274Z,16.31
2023-04-27T18:18:06.512Z,16.42
2023-04-27T18:20:39.782Z,16.49
2023-04-27T18:23:07.694Z,16.61
2023-04-27T18:25:35.933Z,16.78
2023-04-27T18:28:05.963Z,16.99
2023-04-27T18:30:34.186Z,17.11
2023-04-27T18:33:03.977Z,17.13
2023-04-27T18:35:32.373Z,17.07
2023-04-27T18:38:00.733Z,17.09
2023-04-27T18:40:28.653Z,16.97
2023-04-27T18:42:56.661Z,16.92
2023-04-27T18:45:24.867Z,16.94
2023-04-27T18:47:53.590Z,16.90
2023-04-27T18:50:23.427Z,16.75
2023-04-27T18:52:51.509Z,16.67
2023-04-27T18:55:19.595Z,16.61
2023-04-27T18:57:47.589Z,16.69
2023-04-27T19:00:15.973Z,16.74
2023-04-27T19:02:44.062Z,16.82
2023-04-27T19:05:13.683Z,16.77
2023-04-27T19:07:44.290Z,16.71
2023-04-27T19:10:13.152Z,16.66
2023-04-27T19:12:41.273Z,16.62
2023-04-27T19:15:09.622Z,16.65
2023-04-27T19:17:39.053Z,16.51
2023-04-27T19:20:08.512Z,16.32
2023-04-27T19:22:37.119Z,16.25
2023-04-27T19:25:11.600Z,16.11
2023-04-27T19:27:39.752Z,15.93
2023-04-27T19:30:08.824Z,15.83
2023-04-27T19:32:36.976Z,15.77
2023-04-27T19:35:05.204Z,15.78
2023-04-27T19:37:33.505Z,15.77
2023-04-27T19:40:01.643Z,15.72
2023-04-27T19:42:31.802Z,15.60
2023-04-27T19:45:01.144Z,15.61
2023-04-27T19:47:29.541Z,15.59
2023-04-27T19:49:58.583Z,15.66
2023-04-27T19:52:26.839Z,15.58
2023-04-27T19:54:56.217Z,15.56
2023-04-27T19:57:25.040Z,15.51
2023-04-27T19:59:54.658Z,15.49
2023-04-27T20:02:59.408Z,15.48
2023-04-27T20:05:45.881Z,15.40
2023-04-27T20:08:14.019Z,15.34
2023-04-27T20:10:42.023Z,15.36
2023-04-27T20:13:09.854Z,15.34
2023-04-27T20:15:39.193Z,15.23
2023-04-27T20:18:07.143Z,15.11
2023-04-27T20:20:35.051Z,15.15
2023-04-27T20:23:21.722Z,15.16
2023-04-27T20:25:49.925Z,15.13
2023-04-27T20:31:58.254Z,15.19
2023-04-27T20:34:46.272Z,15.24
2023-04-27T20:37:16.919Z,15.25
2023-04-27T20:39:45.556Z,15.30
2023-04-27T20:42:14.452Z,15.33
2023-04-27T20:44:42.739Z,15.27
2023-04-27T20:47:10.733Z,15.06
2023-04-27T20:49:39.066Z,14.92
2023-04-27T20:52:08.750Z,14.80
2023-04-27T20:54:36.855Z,14.82
2023-04-27T20:57:08.931Z,14.72
2023-04-27T20:59:37.459Z,14.55
2023-04-27T21:02:05.853Z,14.41
2023-04-27T21:04:34.137Z,14.24
2023-04-27T21:07:02.286Z,14.18
2023-04-27T21:13:47.435Z,14.16
2023-04-27T21:24:32.751Z,14.11
2023-04-27T21:35:17.790Z,14.31
2023-04-27T21:38:40.566Z,14.14
2023-04-27T21:45:44.610Z,14.25
2023-04-27T21:49:07.247Z,14.25
2023-04-27T21:52:12.860Z,14.36
2023-04-27T21:54:59.678Z,14.27
2023-04-27T21:57:46.531Z,14.14
2023-04-27T22:00:33.920Z,13.98
2023-04-27T22:03:02.807Z,14.08
2023-04-27T22:05:50.466Z,14.23
2023-04-27T22:08:37.688Z,14.22
2023-04-27T22:11:08.033Z,13.92
2023-04-27T22:14:13.986Z,13.84
2023-04-27T22:16:42.400Z,13.75
2023-04-27T22:19:30.840Z,13.72
2023-04-27T22:21:58.997Z,13.68
2023-04-27T22:24:27.226Z,13.75
2023-04-27T22:26:57.757Z,13.91
2023-04-27T22:29:26.890Z,13.72
2023-04-27T22:31:55.480Z,13.74
2023-04-27T22:34:23.616Z,13.74
2023-04-27T22:36:51.610Z,13.73
2023-04-27T22:39:19.676Z,13.75
2023-04-27T22:41:47.969Z,13.81
2023-04-27T22:44:17.729Z,13.51
2023-04-27T22:46:46.310Z,13.54
2023-04-27T22:49:15.161Z,13.76
2023-04-27T22:51:43.787Z,13.93
2023-04-27T22:54:13.109Z,14.07
2023-04-27T22:56:41.124Z,14.00
2023-04-27T22:59:08.856Z,13.92
2023-04-27T23:01:38.265Z,14.12
2023-04-27T23:04:07.591Z,14.25
2023-04-27T23:06:35.838Z,14.30
2023-04-27T23:09:03.755Z,14.12
2023-04-27T23:11:31.420Z,14.03
2023-04-27T23:13:59.471Z,13.79
2023-04-27T23:16:27.507Z,13.63
2023-04-27T23:18:56.654Z,13.52
2023-04-27T23:21:26.546Z,13.07
2023-04-27T23:23:54.549Z,12.72
2023-04-27T23:26:22.220Z,12.58
2023-04-27T23:28:50.267Z,12.51
2023-04-27T23:31:18.102Z,12.64
2023-04-27T23:33:46.032Z,12.76
2023-04-27T23:36:15.261Z,12.82
2023-04-27T23:38:43.289Z,12.65
2023-04-27T23:41:11.196Z,12.44
2023-04-27T23:43:39.603Z,12.51
2023-04-27T23:46:07.799Z,12.37
2023-04-27T23:48:36.640Z,12.57
2023-04-27T23:51:05.481Z,12.99
2023-04-27T23:53:34.868Z,13.10
2023-04-27T23:56:02.912Z,13.24
2023-04-27T23:58:31.124Z,13.36
